Terminal Aerodrome Forecast
Issued by NWS

Home | Current Version | Previous Version | Graphics & Text | Print | Product List | Glossary On
Versions: 1 2 3 4 5 6 7 8 9 10 11 12 13 14 15 16 17 18 19 20 21 22 23 24 25
000
FTUS43 KOAX 242242 AAA
TAFCDR
TAF AMD
KCDR 242242Z 2423/2518 03014KT P6SM VCTS SCT025CB BKN035
      TEMPO 2423/2501 VRB25G35KT 2SM -TSRAGR BKN015CB
     FM250300 33003KT P6SM -SHRA SCT007 OVC015
     FM250900 33005KT 4SM -RA SCT003 OVC007
     FM251600 33005KT 6SM -RA SCT007 OVC015=

USA.gov is the U.S. government's official web portal to all federal, state and local government web resources and services.